createdAt,value
2019-04-14T09:24:46.315Z,102135.16
2019-04-14T09:29:37.971Z,102131.16
2019-04-14T09:34:29.839Z,102139.13
2019-04-14T09:39:22.066Z,102137.26
2019-04-14T09:44:13.813Z,102144.34
2019-04-14T09:49:06.095Z,102126.06
2019-04-14T09:53:58.413Z,102125.29
2019-04-14T09:58:50.890Z,102121.27
2019-04-14T10:03:43.696Z,102124.98
2019-04-14T10:08:36.193Z,102120.64
2019-04-14T10:13:30.138Z,102119.11
2019-04-14T10:18:21.679Z,102123.24
2019-04-14T10:23:13.918Z,102118.25
2019-04-14T10:28:05.849Z,102115.95
2019-04-14T10:32:58.152Z,102113.84
2019-04-14T10:37:50.716Z,102101.74
2019-04-14T10:42:42.816Z,102103.34
2019-04-14T10:47:35.168Z,102106.28
2019-04-14T10:52:27.863Z,102090.56
2019-04-14T10:57:20.488Z,102088.26
2019-04-14T11:02:13.006Z,102098.97
2019-04-14T11:07:05.105Z,102090.17
2019-04-14T11:11:57.476Z,102103.72
2019-04-14T11:16:49.902Z,102096.05
2019-04-14T11:21:44.575Z,102092.70
2019-04-14T11:26:36.392Z,102092.06
2019-04-14T11:31:28.650Z,102093.34
2019-04-14T11:36:21.050Z,102102.98
2019-04-14T11:41:12.919Z,102101.19
2019-04-14T11:46:05.890Z,102096.18
2019-04-14T11:50:58.126Z,102099.70
2019-04-14T11:55:51.057Z,102082.10
2019-04-14T12:00:43.622Z,102095.83
2019-04-14T12:05:36.170Z,102088.16
2019-04-14T12:10:28.551Z,102091.08
2019-04-14T12:15:20.954Z,102102.08
2019-04-14T12:20:13.204Z,102095.45
2019-04-14T12:25:05.377Z,102100.33
2019-04-14T12:30:00.949Z,102091.53
2019-04-14T12:34:52.474Z,102095.89
2019-04-14T12:39:44.546Z,102089.41
2019-04-14T12:44:36.686Z,102101.44
2019-04-14T12:49:28.979Z,102086.39
2019-04-14T12:54:21.082Z,102095.42
2019-04-14T12:59:13.366Z,102093.44
2019-04-14T13:04:06.085Z,102094.39
2019-04-14T13:08:58.278Z,102084.71
2019-04-14T13:13:50.753Z,102080.66
2019-04-14T13:18:43.437Z,102078.12
2019-04-14T13:23:35.739Z,102069.18
2019-04-14T13:28:27.902Z,102062.78
2019-04-14T13:33:20.272Z,102052.81
2019-04-14T13:38:12.201Z,102062.05
2019-04-14T13:43:04.511Z,102046.05
2019-04-14T13:47:57.062Z,102047.77
2019-04-14T13:52:49.534Z,102045.11
2019-04-14T13:57:42.178Z,102041.78
2019-04-14T14:02:34.753Z,102033.86
2019-04-14T14:07:26.633Z,102039.34
2019-04-14T14:12:18.389Z,102044.67
2019-04-14T14:17:10.898Z,102035.72
2019-04-14T14:22:02.578Z,102026.33
2019-04-14T14:26:54.711Z,102014.47
2019-04-14T14:31:46.770Z,102034.56
2019-04-14T14:36:38.600Z,102016.60
2019-04-14T14:41:30.415Z,102010.15
2019-04-14T14:46:22.728Z,102017.52
2019-04-14T14:51:15.198Z,102007.20
2019-04-14T14:56:07.442Z,102019.73
2019-04-14T15:00:59.334Z,102021.67
2019-04-14T15:05:51.278Z,102026.21
2019-04-14T15:10:43.173Z,102034.23
2019-04-14T15:15:34.977Z,102030.50
2019-04-14T15:20:26.802Z,102042.97
2019-04-14T15:25:18.892Z,102039.22
2019-04-14T15:30:10.637Z,102041.23
2019-04-14T15:35:02.416Z,102048.06
2019-04-14T15:39:54.177Z,102042.05
2019-04-14T15:44:45.985Z,102053.64
2019-04-14T15:49:38.172Z,102065.55
2019-04-14T15:54:30.548Z,102072.08
2019-04-14T15:59:22.226Z,102077.97
2019-04-14T16:04:13.805Z,102079.18
2019-04-14T16:09:05.769Z,102081.55
2019-04-14T16:13:57.994Z,102077.72
2019-04-14T16:18:50.600Z,102085.25
2019-04-14T16:23:52.262Z,102090.33
2019-04-14T16:28:42.253Z,102086.40
2019-04-14T16:33:34.031Z,102096.19
2019-04-14T16:38:25.694Z,102098.35
2019-04-14T16:43:17.894Z,102113.14
2019-04-14T16:48:10.103Z,102117.48
2019-04-14T16:53:01.999Z,102117.40
2019-04-14T16:57:54.052Z,102127.30
2019-04-14T17:02:46.066Z,102140.47
2019-04-14T17:07:38.249Z,102136.40
2019-04-14T17:12:30.221Z,102137.58
2019-04-14T17:17:21.961Z,102148.28
2019-04-14T17:22:14.037Z,102149.70
2019-04-14T17:27:06.127Z,102154.05
2019-04-14T17:31:58.199Z,102159.10
2019-04-14T17:36:50.135Z,102152.36
2019-04-14T17:41:44.493Z,102158.48
2019-04-14T17:46:36.443Z,102161.41
2019-04-14T17:51:28.220Z,102168.53
2019-04-14T17:56:20.202Z,102165.47
2019-04-14T18:01:12.316Z,102162.98
2019-04-14T18:06:04.379Z,102169.57
2019-04-14T18:10:56.386Z,102175.55
2019-04-14T18:15:48.233Z,102182.58
2019-04-14T18:20:40.174Z,102179.59
2019-04-14T18:25:32.355Z,102183.44
2019-04-14T18:30:24.311Z,102181.84
2019-04-14T18:35:16.360Z,102191.94
2019-04-14T18:40:10.457Z,102186.80
2019-04-14T18:45:02.069Z,102199.56
2019-04-14T18:49:55.144Z,102206.95
2019-04-14T18:54:56.172Z,102206.69
2019-04-14T18:59:46.099Z,102213.34
2019-04-14T19:04:37.943Z,102221.86
2019-04-14T19:09:30.050Z,102224.74
2019-04-14T19:14:22.191Z,102231.62
2019-04-14T19:19:14.062Z,102242.44
2019-04-14T19:24:05.916Z,102242.45
2019-04-14T19:28:57.886Z,102252.39
2019-04-14T19:33:50.039Z,102261.34
2019-04-14T19:38:42.913Z,102266.70
2019-04-14T19:43:34.867Z,102265.86
2019-04-14T19:48:26.808Z,102269.75
2019-04-14T19:53:18.584Z,102275.19
2019-04-14T19:58:10.675Z,102275.53
2019-04-14T20:03:02.703Z,102282.27
2019-04-14T20:07:54.597Z,102283.22
2019-04-14T20:12:46.606Z,102287.56
2019-04-14T20:17:38.545Z,102291.59
2019-04-14T20:22:30.461Z,102296.27
2019-04-14T20:27:22.856Z,102299.64
2019-04-14T20:32:14.883Z,102313.43
2019-04-14T20:37:06.967Z,102320.44
2019-04-14T20:41:59.108Z,102333.81
2019-04-14T20:46:51.131Z,102324.62
2019-04-14T20:51:43.105Z,102318.60
2019-04-14T20:56:35.058Z,102312.20
2019-04-14T21:01:27.250Z,102301.48
2019-04-14T21:06:18.923Z,102299.41
2019-04-14T21:11:10.895Z,102302.11
